Time;durP1;ratioP1;P1;durP2;ratioP2;P2;SDS_P1;SDS_P2;PMS_P1;PMS_P2;Temp;Humidity;BMP_temperature;BMP_pressure;BME280_temperature;BME280_humidity;BME280_pressure;Samples;Min_cycle;Max_cycle;Signal;HPM_P1;HPM_P2
2023/02/16 00:00:07;;;;;;;17.37;9.05;;;3.00;67.00;;;;;;2525906;54;20902;-83
2023/02/16 00:02:34;;;;;;;15.80;8.80;;;3.00;67.00;;;;;;2525166;54;20914;-83
2023/02/16 00:05:00;;;;;;;15.75;8.90;;;3.00;66.90;;;;;;2291898;54;20832;-82
2023/02/16 00:07:26;;;;;;;20.65;11.93;;;3.00;66.90;;;;;;2525902;54;20878;-82
2023/02/16 00:09:53;;;;;;;16.58;9.95;;;3.00;66.90;;;;;;2526071;54;20950;-82
2023/02/16 00:15:19;;;;;;;20.40;10.93;;;3.00;67.00;;;;;;2525890;54;20985;-83
2023/02/16 00:17:45;;;;;;;14.60;9.18;;;2.90;66.70;;;;;;2291965;54;20894;-82
2023/02/16 00:20:15;;;;;;;15.70;8.77;;;2.90;66.80;;;;;;2525988;54;21410;-82
2023/02/16 00:22:42;;;;;;;13.85;8.43;;;2.90;66.80;;;;;;2524761;54;21793;-83
2023/02/16 00:25:08;;;;;;;16.73;8.88;;;2.90;66.80;;;;;;2525915;54;21325;-83
2023/02/16 00:27:34;;;;;;;13.20;8.30;;;2.90;66.80;;;;;;2524989;54;20918;-83
2023/02/16 00:30:01;;;;;;;15.55;9.05;;;2.90;66.80;;;;;;2292321;54;21722;-82
2023/02/16 00:32:27;;;;;;;16.95;9.57;;;2.80;66.60;;;;;;2525566;54;21019;-83
2023/02/16 00:34:53;;;;;;;14.52;8.88;;;2.70;66.40;;;;;;2525480;54;20977;-82
2023/02/16 00:37:20;;;;;;;17.90;10.38;;;2.80;66.40;;;;;;2292643;54;20966;-82
2023/02/16 00:39:46;;;;;;;16.70;10.25;;;2.70;66.30;;;;;;2524677;54;20961;-82
2023/02/16 00:42:31;;;;;;;14.30;8.63;;;2.70;66.40;;;;;;2525034;54;20894;-82
2023/02/16 00:44:57;;;;;;;19.75;11.95;;;2.70;66.50;;;;;;2292235;54;21791;-83
2023/02/16 00:47:37;;;;;;;15.68;10.02;;;2.70;66.60;;;;;;2525538;54;20890;-82
2023/02/16 00:50:25;;;;;;;16.23;9.65;;;2.60;66.70;;;;;;2525514;54;20938;-83
2023/02/16 00:52:52;;;;;;;17.30;9.65;;;2.70;66.80;;;;;;2525324;54;20929;-83
2023/02/16 00:55:20;;;;;;;14.93;9.20;;;2.60;66.80;;;;;;2525404;54;20978;-81
2023/02/16 00:57:55;;;;;;;18.87;11.43;;;2.60;66.80;;;;;;2524437;54;20990;-82
2023/02/16 01:00:29;;;;;;;19.77;11.95;;;2.60;66.80;;;;;;2524981;54;20914;-83
2023/02/16 01:02:56;;;;;;;18.20;10.10;;;2.60;67.00;;;;;;2524934;54;20898;-83
2023/02/16 01:05:23;;;;;;;21.62;12.30;;;2.60;67.10;;;;;;2524599;54;20973;-82
2023/02/16 01:14:09;;;;;;;15.57;9.40;;;2.60;67.30;;;;;;2524699;54;20985;-85
2023/02/16 01:16:37;;;;;;;16.60;8.80;;;2.60;67.20;;;;;;2291287;54;20934;-84
2023/02/16 01:19:03;;;;;;;15.63;9.52;;;2.60;67.20;;;;;;2524142;54;20994;-83
2023/02/16 01:21:29;;;;;;;18.83;11.15;;;2.60;67.10;;;;;;2523935;54;21009;-83
2023/02/16 01:23:56;;;;;;;16.23;10.07;;;2.50;67.00;;;;;;2523745;54;20937;-83
2023/02/16 01:26:22;;;;;;;15.85;9.68;;;2.50;67.00;;;;;;2524518;54;20914;-83
2023/02/16 01:28:49;;;;;;;19.55;10.90;;;2.50;67.00;;;;;;2530582;54;21012;-83
2023/02/16 01:31:15;;;;;;;19.12;12.40;;;2.50;67.00;;;;;;2528911;54;20910;-83
2023/02/16 01:33:42;;;;;;;16.92;10.40;;;2.50;67.00;;;;;;2523363;54;21446;-83
2023/02/16 01:36:23;;;;;;;16.55;10.18;;;2.50;67.00;;;;;;2521686;54;20902;-83
2023/02/16 01:38:49;;;;;;;18.08;9.80;;;2.50;66.90;;;;;;2522487;54;20988;-83
2023/02/16 01:43:09;;;;;;;17.42;10.35;;;2.50;66.90;;;;;;2522495;54;20941;-83
2023/02/16 01:45:40;;;;;;;14.63;8.95;;;2.40;66.90;;;;;;2296651;55;21087;-82
2023/02/16 01:48:12;;;;;;;13.57;7.90;;;2.40;66.80;;;;;;2522706;54;20922;-82
2023/02/16 01:50:47;;;;;;;16.23;9.23;;;2.40;66.80;;;;;;2522041;54;20951;-83
2023/02/16 01:55:52;;;;;;;16.80;10.38;;;2.40;66.80;;;;;;2523783;54;20910;-83
2023/02/16 01:58:35;;;;;;;16.33;9.18;;;2.40;66.40;;;;;;2523292;54;20978;-83
2023/02/16 02:01:28;;;;;;;17.60;10.57;;;2.40;66.70;;;;;;2524166;54;20949;-84
2023/02/16 02:06:39;;;;;;;16.15;9.73;;;2.30;66.70;;;;;;2523805;54;20963;-83
2023/02/16 02:09:10;;;;;;;16.85;9.75;;;2.30;66.90;;;;;;2524599;54;20930;-83
2023/02/16 02:11:50;;;;;;;18.90;10.48;;;2.30;67.00;;;;;;2292062;54;21897;-82
2023/02/16 02:14:25;;;;;;;17.73;10.35;;;2.30;67.10;;;;;;2525741;54;20962;-82
2023/02/16 02:16:59;;;;;;;14.90;8.65;;;2.20;67.00;;;;;;2524719;54;20954;-83
2023/02/16 02:19:25;;;;;;;15.90;9.85;;;2.20;67.10;;;;;;2525224;54;20922;-81
2023/02/16 02:24:10;;;;;;;18.50;10.60;;;2.30;67.30;;;;;;2524912;54;21586;-82
2023/02/16 02:32:45;;;;;;;15.90;9.30;;;2.20;67.10;;;;;;2524801;54;20970;-83
2023/02/16 02:35:46;;;;;;;11.80;6.68;;;2.30;66.80;;;;;;2524180;54;20942;-83
2023/02/16 02:38:43;;;;;;;14.48;7.72;;;2.20;66.90;;;;;;2522919;54;20989;-82
2023/02/16 02:42:47;;;;;;;14.02;7.53;;;2.20;67.00;;;;;;2523986;54;20898;-83
2023/02/16 02:45:20;;;;;;;16.30;9.98;;;2.20;66.70;;;;;;2291360;54;21763;-82
2023/02/16 02:47:46;;;;;;;14.73;8.45;;;2.20;67.10;;;;;;2522780;54;20993;-83
2023/02/16 02:51:28;;;;;;;16.02;9.60;;;2.20;67.20;;;;;;2523266;54;20922;-84
2023/02/16 03:00:50;;;;;;;12.63;7.00;;;2.20;66.80;;;;;;2289754;54;20028;-83
2023/02/16 03:03:31;;;;;;;13.68;7.15;;;2.20;67.00;;;;;;2523601;54;20910;-83
2023/02/16 03:06:43;;;;;;;13.23;7.20;;;2.10;67.10;;;;;;2522581;54;20941;-83
2023/02/16 03:09:10;;;;;;;10.95;6.45;;;2.10;67.20;;;;;;2290728;54;21021;-83
2023/02/16 03:14:36;;;;;;;16.15;8.23;;;2.10;67.30;;;;;;2291520;54;20980;-83
2023/02/16 03:30:57;;;;;;;14.27;7.60;;;2.20;67.90;;;;;;2523519;54;20981;-83
2023/02/16 03:33:23;;;;;;;13.23;7.45;;;2.20;67.80;;;;;;2524043;54;20942;-83
2023/02/16 03:35:50;;;;;;;20.00;10.02;;;2.20;67.90;;;;;;2523106;54;20946;-83
2023/02/16 03:38:16;;;;;;;15.95;8.63;;;2.20;67.80;;;;;;2524929;54;20994;-82
2023/02/16 03:40:43;;;;;;;14.30;7.62;;;2.20;67.80;;;;;;2523975;54;20980;-83
2023/02/16 03:43:09;;;;;;;16.73;8.38;;;2.20;67.80;;;;;;2525132;54;21069;-82
2023/02/16 03:45:37;;;;;;;15.85;9.20;;;2.20;67.70;;;;;;2292013;54;20894;-83
2023/02/16 03:48:04;;;;;;;17.70;9.57;;;2.20;67.70;;;;;;2524587;54;21522;-82
2023/02/16 03:50:30;;;;;;;18.45;9.95;;;2.20;67.70;;;;;;2525036;54;20918;-82
2023/02/16 03:53:05;;;;;;;14.50;8.20;;;2.00;67.50;;;;;;2524561;54;21360;-83
2023/02/16 03:55:36;;;;;;;15.88;8.65;;;2.30;67.70;;;;;;2524220;54;21022;-83
2023/02/16 03:58:04;;;;;;;15.18;8.57;;;2.30;68.30;;;;;;2525007;54;20956;-83
2023/02/16 04:00:30;;;;;;;15.75;8.27;;;2.30;67.70;;;;;;2292237;54;20902;-83
2023/02/16 04:02:56;;;;;;;15.50;8.48;;;2.30;67.50;;;;;;2524787;54;22172;-83
2023/02/16 04:05:23;;;;;;;11.27;7.07;;;2.30;67.60;;;;;;2525010;54;20981;-83
2023/02/16 04:07:49;;;;;;;12.37;6.65;;;2.10;67.30;;;;;;2524530;54;20918;-83
2023/02/16 04:10:15;;;;;;;12.48;7.45;;;2.30;67.50;;;;;;2524713;54;20982;-83
2023/02/16 04:12:42;;;;;;;10.95;6.30;;;2.30;68.20;;;;;;2291726;54;20894;-83
2023/02/16 04:15:13;;;;;;;14.55;7.82;;;2.30;67.40;;;;;;2524882;54;20984;-83
2023/02/16 04:17:43;;;;;;;17.75;9.63;;;2.30;67.30;;;;;;2524543;54;20898;-83
2023/02/16 04:20:17;;;;;;;15.13;8.20;;;2.30;67.20;;;;;;2525986;54;20963;-83
2023/02/16 04:22:47;;;;;;;17.45;7.82;;;2.20;67.30;;;;;;2524329;54;20958;-83
2023/02/16 04:25:13;;;;;;;15.45;7.82;;;2.20;67.10;;;;;;2291959;54;20922;-83
2023/02/16 04:27:40;;;;;;;15.95;7.95;;;2.20;67.20;;;;;;2524174;54;21217;-82
2023/02/16 04:30:07;;;;;;;18.70;8.90;;;2.20;67.20;;;;;;2291286;54;20970;-83
2023/02/16 04:32:33;;;;;;;17.65;9.25;;;2.20;67.20;;;;;;2524821;54;20918;-83
2023/02/16 04:35:00;;;;;;;16.23;8.68;;;2.20;67.20;;;;;;2523894;54;20978;-83
2023/02/16 04:37:26;;;;;;;18.05;9.35;;;2.20;67.20;;;;;;2524395;54;20930;-83
2023/02/16 04:39:52;;;;;;;18.87;9.35;;;2.20;67.20;;;;;;2524264;54;20981;-82
2023/02/16 04:42:19;;;;;;;18.98;10.05;;;2.20;67.20;;;;;;2525009;54;20902;-82
2023/02/16 04:44:45;;;;;;;17.48;8.73;;;2.20;67.20;;;;;;2524201;54;20978;-83
2023/02/16 04:47:12;;;;;;;16.50;7.68;;;2.20;67.20;;;;;;2524909;54;20999;-82
2023/02/16 04:49:38;;;;;;;18.65;8.68;;;2.20;67.20;;;;;;2291332;54;20906;-83
2023/02/16 04:52:05;;;;;;;16.42;8.27;;;2.20;67.20;;;;;;2524455;54;20974;-82
2023/02/16 04:54:31;;;;;;;13.80;7.85;;;2.10;67.10;;;;;;2524913;54;20921;-82
2023/02/16 04:56:58;;;;;;;18.00;8.98;;;2.10;67.10;;;;;;2523964;54;20957;-82
2023/02/16 04:59:24;;;;;;;20.23;10.98;;;2.10;67.10;;;;;;2524304;54;21000;-83
2023/02/16 05:01:51;;;;;;;20.02;11.15;;;2.10;67.50;;;;;;2524302;54;20958;-83
2023/02/16 05:04:18;;;;;;;15.60;8.70;;;2.10;67.30;;;;;;2292070;54;20909;-83
2023/02/16 05:06:44;;;;;;;14.90;8.48;;;2.10;67.30;;;;;;2524402;54;20970;-84
2023/02/16 05:09:10;;;;;;;18.25;9.80;;;2.10;67.40;;;;;;2524387;54;20926;-82
2023/02/16 05:14:40;;;;;;;17.80;8.45;;;2.10;68.10;;;;;;2525280;54;20986;-83
2023/02/16 05:17:17;;;;;;;12.82;7.85;;;2.10;67.40;;;;;;2524378;54;21913;-83
2023/02/16 05:19:45;;;;;;;16.37;9.20;;;2.10;67.40;;;;;;2524639;54;20926;-82
2023/02/16 05:22:11;;;;;;;18.92;10.20;;;2.10;67.30;;;;;;2524747;54;20898;-83
2023/02/16 05:24:37;;;;;;;20.83;10.82;;;2.10;67.40;;;;;;2291978;54;20933;-83
2023/02/16 05:27:05;;;;;;;15.43;8.38;;;2.10;67.40;;;;;;2524140;54;20926;-83
2023/02/16 05:29:31;;;;;;;19.52;9.95;;;2.10;67.50;;;;;;2292083;54;20918;-82
2023/02/16 05:31:58;;;;;;;14.05;7.90;;;2.10;67.30;;;;;;2524510;54;20989;-83
2023/02/16 05:34:24;;;;;;;17.65;9.13;;;2.10;67.50;;;;;;2524912;54;20946;-82
2023/02/16 05:36:51;;;;;;;15.15;8.75;;;2.10;67.50;;;;;;2523951;54;20942;-83
2023/02/16 05:39:17;;;;;;;19.33;9.60;;;2.10;67.40;;;;;;2525254;54;21001;-83
2023/02/16 05:41:43;;;;;;;22.37;11.00;;;2.10;67.50;;;;;;2524581;54;20938;-83
2023/02/16 05:44:09;;;;;;;19.42;10.23;;;2.10;67.50;;;;;;2525396;54;21023;-83
2023/02/16 05:46:37;;;;;;;19.55;10.95;;;2.10;67.40;;;;;;2296456;54;20968;-83
2023/02/16 05:49:03;;;;;;;18.33;9.70;;;2.10;67.50;;;;;;2524664;54;20966;-83
2023/02/16 05:51:30;;;;;;;23.45;10.70;;;2.10;67.50;;;;;;2526915;54;20890;-83
2023/02/16 05:53:56;;;;;;;17.35;9.48;;;2.10;67.40;;;;;;2525404;54;21403;-82
2023/02/16 05:56:22;;;;;;;19.30;10.02;;;2.10;67.50;;;;;;2524850;54;20914;-82
2023/02/16 05:58:48;;;;;;;18.20;9.73;;;2.10;67.50;;;;;;2524526;54;20938;-83
2023/02/16 06:01:15;;;;;;;19.95;10.85;;;2.20;67.60;;;;;;2292015;54;20917;-83
2023/02/16 06:03:41;;;;;;;22.20;11.30;;;2.10;67.50;;;;;;2525003;54;20989;-83
2023/02/16 06:06:08;;;;;;;21.25;10.65;;;2.20;67.70;;;;;;2524593;54;20937;-83
2023/02/16 06:08:35;;;;;;;20.90;10.38;;;2.20;67.70;;;;;;2292314;54;20890;-83
2023/02/16 06:11:01;;;;;;;17.55;8.77;;;2.20;67.70;;;;;;2524499;54;20962;-82
2023/02/16 06:13:28;;;;;;;25.12;11.05;;;2.10;67.60;;;;;;2524737;54;20962;-83
2023/02/16 06:15:55;;;;;;;17.90;9.02;;;2.20;67.70;;;;;;2524294;54;20981;-82
2023/02/16 06:18:22;;;;;;;21.92;9.90;;;2.20;67.70;;;;;;2525440;54;21216;-83
2023/02/16 06:20:49;;;;;;;19.48;10.23;;;2.20;67.80;;;;;;2525003;54;21001;-83
2023/02/16 06:23:18;;;;;;;21.40;9.75;;;2.20;67.80;;;;;;2525663;54;21722;-83
2023/02/16 06:25:47;;;;;;;20.30;9.68;;;2.20;67.80;;;;;;2292332;54;20859;-82
2023/02/16 06:28:13;;;;;;;20.02;10.13;;;2.30;68.00;;;;;;2525748;54;21424;-83
2023/02/16 06:30:41;;;;;;;22.45;10.77;;;2.20;67.90;;;;;;2292255;54;21355;-83
2023/02/16 06:33:10;;;;;;;22.30;10.18;;;2.20;67.90;;;;;;2525545;54;20921;-83
2023/02/16 06:35:36;;;;;;;18.55;9.23;;;2.20;68.00;;;;;;2292527;54;20942;-83
2023/02/16 06:38:03;;;;;;;20.85;8.93;;;2.30;68.10;;;;;;2525758;54;21595;-83
2023/02/16 06:40:29;;;;;;;16.83;8.10;;;2.30;68.10;;;;;;2292818;54;20909;-83
2023/02/16 06:42:55;;;;;;;16.83;8.70;;;2.30;68.10;;;;;;2526197;54;20894;-83
2023/02/16 06:45:22;;;;;;;17.45;7.87;;;2.30;68.00;;;;;;2526697;54;20926;-82
2023/02/16 06:47:48;;;;;;;23.50;11.00;;;2.30;68.00;;;;;;2526184;54;20925;-83
2023/02/16 06:50:16;;;;;;;25.42;10.98;;;2.20;67.90;;;;;;2526287;54;21061;-85
2023/02/16 06:52:42;;;;;;;23.17;10.88;;;2.30;68.00;;;;;;2527327;54;20935;-82
2023/02/16 06:55:09;;;;;;;28.15;14.15;;;2.40;68.80;;;;;;2297040;54;20949;-83
2023/02/16 06:57:35;;;;;;;26.12;12.82;;;2.40;68.10;;;;;;2526651;54;21076;-83
2023/02/16 07:00:03;;;;;;;30.50;13.82;;;2.40;68.10;;;;;;2292392;54;20962;-83
2023/02/16 07:02:30;;;;;;;31.92;15.20;;;2.40;68.20;;;;;;2524551;54;21022;-83
2023/02/16 07:04:56;;;;;;;23.85;11.90;;;2.40;68.20;;;;;;2524816;54;21875;-82
2023/02/16 07:07:23;;;;;;;20.58;11.00;;;2.40;68.20;;;;;;2526541;54;20914;-84
2023/02/16 07:09:49;;;;;;;26.60;12.80;;;2.40;68.20;;;;;;2525258;54;20921;-83
2023/02/16 07:12:16;;;;;;;27.20;13.75;;;2.50;68.50;;;;;;2525625;54;20970;-83
2023/02/16 07:14:45;;;;;;;24.23;11.27;;;2.50;68.20;;;;;;2525358;54;21592;-82
2023/02/16 07:17:12;;;;;;;25.42;12.93;;;2.50;68.30;;;;;;2525223;54;20914;-82
2023/02/16 07:19:38;;;;;;;25.05;12.88;;;2.50;68.30;;;;;;2526250;54;20918;-82
2023/02/16 07:22:04;;;;;;;32.78;15.25;;;2.50;68.30;;;;;;2524673;54;20910;-83
2023/02/16 07:24:31;;;;;;;30.17;14.57;;;2.50;68.30;;;;;;2525476;54;20921;-82
2023/02/16 07:26:57;;;;;;;27.40;13.50;;;2.60;68.50;;;;;;2524809;54;20957;-82
2023/02/16 07:29:23;;;;;;;26.27;13.45;;;2.60;68.50;;;;;;2525156;54;20914;-83
2023/02/16 07:31:50;;;;;;;25.77;13.13;;;2.60;68.50;;;;;;2525021;54;20953;-83
2023/02/16 07:34:16;;;;;;;28.00;14.13;;;2.60;68.50;;;;;;2292481;54;20945;-83
2023/02/16 07:36:44;;;;;;;25.15;12.60;;;2.60;68.50;;;;;;2296427;54;20911;-83
2023/02/16 07:39:10;;;;;;;21.85;10.40;;;2.60;68.50;;;;;;2525229;54;20914;-82
2023/02/16 07:41:37;;;;;;;23.92;12.37;;;2.70;68.60;;;;;;2525223;54;20930;-82
2023/02/16 07:44:03;;;;;;;24.25;12.68;;;2.70;68.50;;;;;;2524382;54;21181;-82
2023/02/16 07:46:30;;;;;;;26.45;14.63;;;2.70;68.60;;;;;;2525406;54;20902;-83
2023/02/16 07:48:59;;;;;;;35.55;17.83;;;2.80;68.70;;;;;;2524706;54;20921;-82
2023/02/16 07:51:27;;;;;;;30.83;16.67;;;2.80;68.60;;;;;;2524874;54;20906;-83
2023/02/16 07:53:53;;;;;;;29.45;17.40;;;2.80;68.70;;;;;;2524671;55;20926;-83
2023/02/16 07:56:21;;;;;;;29.70;15.63;;;2.80;68.70;;;;;;2525140;54;20934;-83
2023/02/16 07:58:47;;;;;;;28.45;14.50;;;2.80;68.70;;;;;;2524778;54;20913;-84
2023/02/16 08:01:13;;;;;;;25.00;14.60;;;2.90;68.90;;;;;;2525373;54;20973;-83
2023/02/16 08:03:41;;;;;;;32.38;17.73;;;2.90;68.90;;;;;;2524320;54;20882;-81
2023/02/16 08:06:08;;;;;;;28.70;15.90;;;2.90;68.90;;;;;;2523660;54;21821;-83
2023/02/16 08:08:34;;;;;;;33.42;16.98;;;3.00;69.10;;;;;;2524575;54;20921;-83
2023/02/16 08:11:28;;;;;;;35.53;19.08;;;3.00;69.20;;;;;;2524977;54;20935;-84
2023/02/16 08:13:54;;;;;;;37.08;19.87;;;3.00;69.30;;;;;;2523813;53;21054;-85
2023/02/16 08:16:22;;;;;;;47.60;23.87;;;3.10;70.10;;;;;;2530650;54;21660;-83
2023/02/16 08:18:49;;;;;;;51.17;26.42;;;3.10;69.70;;;;;;2309016;54;21033;-84
2023/02/16 08:21:17;;;;;;;41.83;23.10;;;3.20;69.70;;;;;;2523929;54;20925;-82
2023/02/16 08:23:52;;;;;;;43.45;24.77;;;3.20;69.80;;;;;;2522824;54;21081;-82
2023/02/16 08:26:19;;;;;;;49.15;27.75;;;3.30;70.00;;;;;;2522927;54;20902;-83
2023/02/16 08:28:46;;;;;;;54.20;28.70;;;3.40;70.20;;;;;;2522836;54;20942;-82
2023/02/16 08:31:13;;;;;;;46.53;27.30;;;3.40;70.30;;;;;;2523521;54;20913;-81
2023/02/16 08:33:40;;;;;;;49.47;26.85;;;3.50;70.50;;;;;;2523384;54;20938;-82
2023/02/16 08:36:11;;;;;;;45.90;26.73;;;3.60;70.60;;;;;;2523045;54;20949;-82
2023/02/16 08:38:42;;;;;;;41.03;23.92;;;3.60;70.70;;;;;;2525307;54;20954;-84
2023/02/16 08:41:08;;;;;;;40.12;22.45;;;3.70;70.80;;;;;;2524764;54;21040;-84
2023/02/16 08:43:35;;;;;;;40.58;23.40;;;3.80;71.00;;;;;;2525879;54;20950;-83
2023/02/16 08:46:02;;;;;;;31.65;20.12;;;3.80;71.00;;;;;;2524080;54;21510;-82
2023/02/16 08:48:34;;;;;;;31.70;18.55;;;3.90;71.20;;;;;;2291650;54;21493;-83
2023/02/16 08:51:00;;;;;;;31.87;16.83;;;3.80;71.20;;;;;;2524656;54;21749;-83
2023/02/16 08:53:31;;;;;;;27.17;16.08;;;4.10;71.60;;;;;;2526524;53;20954;-83
2023/02/16 08:55:59;;;;;;;22.27;13.85;;;4.20;71.80;;;;;;2526615;53;20931;-84
2023/02/16 08:58:25;;;;;;;26.45;14.55;;;4.30;71.90;;;;;;2526958;53;20966;-84
2023/02/16 09:00:52;;;;;;;23.73;14.60;;;4.40;71.90;;;;;;2292240;54;21029;-83
2023/02/16 09:03:18;;;;;;;29.90;15.77;;;4.50;72.10;;;;;;2525888;54;20969;-83
2023/02/16 09:05:49;;;;;;;28.42;15.82;;;4.60;72.20;;;;;;2525338;54;20937;-86
2023/02/16 09:08:15;;;;;;;24.40;14.40;;;4.80;72.40;;;;;;2525338;54;20986;-83
2023/02/16 09:10:42;;;;;;;22.80;14.38;;;4.80;72.60;;;;;;2524446;54;20937;-84
2023/02/16 09:13:14;;;;;;;20.62;12.10;;;4.90;72.80;;;;;;2523625;54;20978;-82
2023/02/16 09:15:44;;;;;;;22.25;12.88;;;5.00;72.90;;;;;;2524006;54;20954;-83
2023/02/16 09:18:11;;;;;;;19.12;11.57;;;5.10;73.10;;;;;;2523925;54;21292;-83
2023/02/16 09:20:41;;;;;;;19.90;11.63;;;5.20;73.20;;;;;;2523633;54;20925;-84
2023/02/16 09:23:11;;;;;;;17.85;10.85;;;5.30;73.50;;;;;;2524032;54;21579;-83
2023/02/16 09:25:38;;;;;;;16.20;9.30;;;5.50;73.70;;;;;;2523830;54;20878;-83
2023/02/16 09:28:05;;;;;;;16.67;9.55;;;5.60;73.90;;;;;;2291048;54;20977;-82
2023/02/16 09:30:31;;;;;;;18.30;11.00;;;5.70;74.10;;;;;;2523709;54;21013;-82
2023/02/16 09:33:01;;;;;;;15.88;10.30;;;5.90;75.20;;;;;;2524244;54;20971;-83
2023/02/16 09:35:27;;;;;;;19.00;11.48;;;6.00;74.90;;;;;;2290369;54;21540;-82
2023/02/16 09:37:53;;;;;;;22.75;13.10;;;6.20;75.40;;;;;;2524365;54;20985;-82
2023/02/16 09:40:20;;;;;;;19.65;11.90;;;6.40;76.00;;;;;;2524204;54;21006;-83
2023/02/16 09:43:45;;;;;;;20.12;13.62;;;6.50;76.40;;;;;;2523765;54;20922;-81
2023/02/16 09:46:12;;;;;;;24.40;13.70;;;6.80;77.10;;;;;;2523799;54;20926;-82
2023/02/16 09:48:47;;;;;;;22.52;14.23;;;7.10;77.60;;;;;;2522449;54;20989;-83
2023/02/16 09:51:25;;;;;;;19.15;12.70;;;7.30;78.20;;;;;;2522318;54;21033;-83
2023/02/16 09:54:23;;;;;;;23.12;14.55;;;7.60;78.60;;;;;;2522109;54;20990;-83
2023/02/16 09:56:54;;;;;;;22.37;14.73;;;7.80;78.90;;;;;;2521787;54;20993;-84
2023/02/16 10:00:51;;;;;;;20.10;11.98;;;8.10;79.30;;;;;;2521826;54;21809;-83
2023/02/16 10:07:34;;;;;;;16.40;10.35;;;8.40;79.60;;;;;;2521759;54;21053;-84
2023/02/16 10:10:01;;;;;;;13.95;7.85;;;8.80;79.90;;;;;;2520270;54;20981;-84
2023/02/16 10:12:36;;;;;;;14.35;9.27;;;9.30;80.20;;;;;;2522434;54;21492;-83
2023/02/16 10:15:07;;;;;;;13.98;8.45;;;9.50;80.40;;;;;;2521990;54;21510;-82
2023/02/16 10:17:47;;;;;;;13.82;8.85;;;9.80;80.50;;;;;;2522960;54;20994;-83
2023/02/16 10:20:31;;;;;;;14.48;8.10;;;10.00;79.30;;;;;;2521906;54;20970;-83
2023/02/16 10:23:23;;;;;;;13.20;8.13;;;10.30;79.30;;;;;;2289963;54;20981;-83
2023/02/16 10:29:24;;;;;;;12.82;8.30;;;10.60;79.30;;;;;;2522162;54;20925;-84
2023/02/16 10:32:09;;;;;;;13.98;6.78;;;10.80;79.60;;;;;;2527546;53;20971;-83
2023/02/16 10:34:53;;;;;;;9.93;6.30;;;11.40;79.40;;;;;;2317660;54;20913;-83
2023/02/16 10:38:10;;;;;;;10.18;6.12;;;11.60;79.50;;;;;;2527335;53;20897;-84
2023/02/16 10:43:45;;;;;;;9.38;5.30;;;11.90;77.80;;;;;;2527701;53;20890;-84
2023/02/16 10:46:16;;;;;;;9.05;4.97;;;12.20;78.90;;;;;;2527047;53;20973;-83
2023/02/16 10:48:42;;;;;;;8.73;5.03;;;12.70;79.20;;;;;;2526488;53;20912;-85
2023/02/16 10:51:11;;;;;;;9.27;5.62;;;13.00;79.30;;;;;;2526881;53;20926;-86
2023/02/16 10:53:43;;;;;;;10.15;5.82;;;13.20;78.70;;;;;;2527056;53;20883;-83
2023/02/16 10:57:02;;;;;;;8.65;5.50;;;13.40;78.10;;;;;;2527188;53;20922;-86
2023/02/16 10:59:40;;;;;;;11.12;6.57;;;13.70;77.10;;;;;;2291434;54;20966;-84
2023/02/16 11:02:26;;;;;;;10.98;6.45;;;14.00;77.20;;;;;;2526803;53;20986;-84
2023/02/16 11:04:54;;;;;;;9.10;5.47;;;14.20;76.10;;;;;;2291996;54;20921;-84
2023/02/16 11:07:22;;;;;;;10.30;6.03;;;14.30;77.40;;;;;;2526259;53;21883;-83
2023/02/16 11:09:52;;;;;;;8.68;5.22;;;14.50;77.10;;;;;;2525605;53;20918;-84
2023/02/16 11:12:30;;;;;;;9.13;5.30;;;14.70;76.50;;;;;;2527202;53;20957;-84
2023/02/16 11:15:02;;;;;;;10.70;6.07;;;14.90;75.40;;;;;;2526556;53;20945;-86
2023/02/16 11:17:29;;;;;;;;;;;15.10;75.90;;;;;;2295527;54;20906;-84
2023/02/16 11:19:58;;;;;;;7.78;4.55;;;15.30;74.00;;;;;;2526167;53;20071;-84
2023/02/16 11:22:35;;;;;;;10.63;4.85;;;15.40;75.90;;;;;;2292447;54;20930;-83
2023/02/16 11:25:23;;;;;;;7.75;4.80;;;15.60;74.60;;;;;;2526154;53;20914;-83
2023/02/16 11:27:57;;;;;;;8.88;4.97;;;15.70;73.10;;;;;;2525695;53;21786;-84
2023/02/16 11:30:34;;;;;;;7.25;4.60;;;15.80;74.10;;;;;;2292312;54;20905;-84
2023/02/16 11:33:17;;;;;;;6.20;3.80;;;15.90;74.10;;;;;;2291820;54;21848;-85
2023/02/16 11:35:43;;;;;;;;;;;16.00;74.90;;;;;;2295266;54;21921;-82
2023/02/16 11:38:26;;;;;;;7.18;4.10;;;16.20;73.50;;;;;;2526251;53;20119;-83
2023/02/16 11:40:53;;;;;;;6.85;4.53;;;16.30;73.10;;;;;;2291910;54;20890;-81
2023/02/16 11:43:19;;;;;;;10.80;4.90;;;16.30;74.00;;;;;;2526561;54;20986;-82
2023/02/16 11:46:06;;;;;;;9.70;4.47;;;16.40;73.40;;;;;;2291671;54;20969;-82
2023/02/16 11:48:33;;;;;;;7.20;4.35;;;16.40;71.40;;;;;;2525830;53;20910;-82
2023/02/16 11:51:04;;;;;;;9.20;4.78;;;16.50;72.80;;;;;;2291424;54;20945;-82
2023/02/16 11:53:32;;;;;;;6.93;4.40;;;16.50;72.30;;;;;;2524819;54;20984;-84
2023/02/16 11:56:23;;;;;;;7.35;4.07;;;16.50;72.00;;;;;;2525042;53;22232;-82
2023/02/16 12:05:53;;;;;;;8.10;4.93;;;16.60;70.10;;;;;;2524068;54;21493;-83
2023/02/16 12:10:08;;;;;;;6.12;3.35;;;16.60;68.90;;;;;;2292567;54;21014;-82
2023/02/16 12:12:50;;;;;;;6.18;3.60;;;16.70;69.40;;;;;;2525264;54;20937;-83
2023/02/16 12:15:52;;;;;;;6.57;3.87;;;16.60;69.70;;;;;;2525769;54;20906;-83
2023/02/16 12:19:20;;;;;;;5.78;3.75;;;16.60;68.60;;;;;;2291814;54;20958;-83
2023/02/16 12:21:51;;;;;;;7.30;3.80;;;16.60;67.30;;;;;;2522713;54;21858;-82
2023/02/16 12:24:57;;;;;;;7.37;4.10;;;16.60;70.10;;;;;;2525094;54;20902;-83
2023/02/16 12:27:44;;;;;;;6.55;4.22;;;16.60;68.50;;;;;;2525140;54;21024;-82
2023/02/16 12:31:48;;;;;;;10.15;4.75;;;16.60;68.40;;;;;;2525184;54;21866;-82
2023/02/16 12:37:41;;;;;;;6.47;3.90;;;16.60;67.40;;;;;;2524990;54;20986;-81
2023/02/16 12:40:45;;;;;;;7.22;3.55;;;16.80;68.40;;;;;;2290622;54;20964;-83
2023/02/16 12:43:47;;;;;;;6.25;3.60;;;16.90;69.20;;;;;;2525954;53;21006;-82
2023/02/16 12:46:26;;;;;;;7.93;4.43;;;17.00;68.60;;;;;;2293795;54;21013;-83
2023/02/16 12:48:55;;;;;;;6.47;3.97;;;17.10;70.70;;;;;;2526092;53;21469;-82
2023/02/16 12:51:29;;;;;;;8.77;4.47;;;17.20;71.30;;;;;;2526384;54;20950;-83
2023/02/16 12:53:59;;;;;;;8.77;4.53;;;17.20;70.80;;;;;;2289059;54;21003;-83
2023/02/16 12:56:32;;;;;;;7.80;5.32;;;17.30;70.80;;;;;;2520978;54;20937;-81
2023/02/16 12:59:22;;;;;;;8.98;4.97;;;17.40;70.00;;;;;;2521301;54;20930;-83
2023/02/16 13:01:50;;;;;;;9.02;4.20;;;17.50;69.80;;;;;;2288898;54;20929;-85
2023/02/16 13:04:37;;;;;;;10.18;5.95;;;17.60;70.40;;;;;;2523569;54;20989;-85
2023/02/16 13:07:22;;;;;;;9.90;5.20;;;17.70;67.10;;;;;;2523943;54;21017;-84
2023/02/16 13:10:50;;;;;;;8.65;5.28;;;17.70;67.90;;;;;;2291127;54;21013;-86
2023/02/16 13:13:18;;;;;;;7.68;4.70;;;17.80;67.60;;;;;;2522058;54;20966;-83
2023/02/16 13:16:05;;;;;;;7.97;4.80;;;17.90;69.20;;;;;;2521419;54;22050;-85
2023/02/16 13:18:35;;;;;;;6.57;4.20;;;17.90;68.00;;;;;;2290581;54;21324;-82
2023/02/16 13:21:07;;;;;;;7.97;5.35;;;17.90;68.70;;;;;;2522206;54;20938;-83
2023/02/16 13:25:40;;;;;;;7.85;5.05;;;18.00;68.10;;;;;;2521324;54;20989;-84
2023/02/16 13:28:21;;;;;;;8.67;4.33;;;18.00;65.10;;;;;;2293519;54;20970;-87
2023/02/16 13:31:05;;;;;;;6.60;4.07;;;18.00;67.70;;;;;;2522106;54;21571;-87
2023/02/16 13:34:09;;;;;;;7.18;4.45;;;18.00;67.50;;;;;;2520965;54;20962;-83
2023/02/16 13:37:11;;;;;;;7.85;4.78;;;18.00;65.30;;;;;;2522645;54;20978;-85
2023/02/16 13:46:26;;;;;;;6.22;3.70;;;18.00;65.70;;;;;;2290716;54;21453;-86
2023/02/16 13:48:53;;;;;;;6.70;3.97;;;17.90;65.90;;;;;;2522241;54;21502;-83
2023/02/16 13:51:21;;;;;;;8.52;4.28;;;17.90;68.20;;;;;;2523131;54;20996;-86
2023/02/16 13:53:58;;;;;;;8.15;4.72;;;17.90;67.90;;;;;;2522798;54;20938;-85
2023/02/16 13:56:36;;;;;;;6.43;4.10;;;17.90;66.60;;;;;;2522644;54;20981;-86
2023/02/16 14:02:50;;;;;;;7.80;4.40;;;17.90;66.90;;;;;;2521672;54;21045;-84
2023/02/16 14:05:22;;;;;;;5.85;3.70;;;18.00;66.10;;;;;;2521696;54;20989;-84
2023/02/16 14:11:31;;;;;;;7.70;4.00;;;18.00;67.90;;;;;;2289428;54;20989;-85
2023/02/16 14:13:58;;;;;;;7.47;3.42;;;18.10;67.40;;;;;;2521159;54;20960;-82
2023/02/16 14:16:29;;;;;;;7.22;4.28;;;18.10;68.70;;;;;;2287421;54;20998;-83
2023/02/16 14:21:33;;;;;;;7.35;4.28;;;18.10;67.40;;;;;;2517783;54;21042;-81
2023/02/16 14:24:01;;;;;;;6.80;3.53;;;18.10;67.70;;;;;;2519081;54;21231;-82
2023/02/16 14:26:29;;;;;;;6.62;4.10;;;18.10;67.90;;;;;;2519623;54;21009;-81
2023/02/16 14:30:21;;;;;;;7.25;4.30;;;18.10;67.50;;;;;;2517126;54;20970;-82
2023/02/16 14:39:42;;;;;;;9.38;4.32;;;18.10;64.30;;;;;;2517376;54;21050;-83
2023/02/16 14:42:32;;;;;;;5.37;2.87;;;18.10;66.90;;;;;;2519003;54;20977;-81
2023/02/16 14:46:38;;;;;;;8.68;3.85;;;18.10;67.50;;;;;;2520065;54;21013;-81
2023/02/16 14:49:39;;;;;;;6.20;3.40;;;18.00;64.90;;;;;;2286179;54;20957;-82
2023/02/16 14:57:45;;;;;;;5.80;3.30;;;17.90;64.40;;;;;;2519000;54;20974;-82
2023/02/16 15:00:36;;;;;;;5.35;2.95;;;17.90;64.80;;;;;;2518861;54;21125;-83